createdAt,value
2023-01-02T00:02:02.428Z,16.92
2023-01-02T00:07:24.248Z,18.52
2023-01-02T00:12:46.103Z,14.98
2023-01-02T00:18:07.993Z,13.85
2023-01-02T00:23:30.333Z,16.52
2023-01-02T00:28:52.219Z,13.98
2023-01-02T00:34:14.289Z,20.42
2023-01-02T00:39:36.148Z,16.25
2023-01-02T00:44:57.996Z,16.75
2023-01-02T00:50:20.283Z,17.05
2023-01-02T00:55:44.395Z,15.30
2023-01-02T01:01:06.323Z,15.82
2023-01-02T01:06:28.283Z,19.02
2023-01-02T01:11:50.147Z,13.88
2023-01-02T01:17:11.989Z,16.77
2023-01-02T01:22:33.918Z,16.65
2023-01-02T01:27:55.762Z,13.38
2023-01-02T01:33:17.604Z,14.32
2023-01-02T01:38:39.658Z,17.33
2023-01-02T01:44:01.657Z,16.30
2023-01-02T01:49:29.432Z,15.70
2023-01-02T01:54:58.782Z,15.68
2023-01-02T02:00:21.122Z,13.20
2023-01-02T02:05:44.108Z,14.65
2023-01-02T02:11:06.381Z,14.02
2023-01-02T02:16:51.679Z,15.55
2023-01-02T02:22:44.641Z,15.32
2023-01-02T02:28:25.487Z,18.80
2023-01-02T02:33:58.928Z,17.45
2023-01-02T02:39:34.773Z,16.10
2023-01-02T02:45:00.553Z,15.50
2023-01-02T02:50:57.673Z,16.83
2023-01-02T02:56:23.135Z,14.30
2023-01-02T03:01:45.146Z,16.25
2023-01-02T03:07:16.153Z,14.27
2023-01-02T03:12:53.228Z,14.63
2023-01-02T03:18:52.497Z,18.05
2023-01-02T03:24:19.443Z,17.13
2023-01-02T03:29:47.401Z,17.85
2023-01-02T03:35:14.330Z,16.40
2023-01-02T03:40:42.996Z,15.95
2023-01-02T03:46:13.493Z,18.63
2023-01-02T03:51:35.551Z,15.45
2023-01-02T03:57:50.819Z,17.02
2023-01-02T04:03:23.242Z,15.48
2023-01-02T04:08:51.972Z,16.70
2023-01-02T04:14:20.129Z,18.88
2023-01-02T04:19:50.743Z,16.58
2023-01-02T04:25:15.873Z,15.45
2023-01-02T04:30:42.875Z,17.40
2023-01-02T04:36:13.287Z,17.00
2023-01-02T04:41:36.854Z,13.43
2023-01-02T04:46:58.704Z,15.25
2023-01-02T04:52:20.620Z,15.60
2023-01-02T04:57:42.498Z,14.55
2023-01-02T05:03:05.101Z,16.90
2023-01-02T05:08:29.130Z,15.93
2023-01-02T05:13:50.977Z,17.23
2023-01-02T05:19:13.073Z,17.08
2023-01-02T05:24:34.932Z,17.27
2023-01-02T05:29:56.911Z,16.38
2023-01-02T05:35:18.852Z,15.82
2023-01-02T05:40:40.968Z,19.98
2023-01-02T05:46:11.231Z,17.45
2023-01-02T05:51:33.818Z,15.52
2023-01-02T05:56:56.566Z,16.73
2023-01-02T06:02:18.470Z,17.63
2023-01-02T06:07:40.341Z,17.27
2023-01-02T06:13:02.227Z,16.33
2023-01-02T06:18:24.216Z,21.35
2023-01-02T06:23:46.843Z,19.48
2023-01-02T06:29:08.977Z,16.88
2023-01-02T06:34:30.852Z,16.98
2023-01-02T06:39:52.792Z,16.90
2023-01-02T06:45:14.743Z,16.77
2023-01-02T06:50:37.026Z,18.45
2023-01-02T06:55:59.113Z,20.75
2023-01-02T07:01:23.137Z,19.25
2023-01-02T07:06:45.039Z,17.27
2023-01-02T07:12:06.925Z,14.55
2023-01-02T07:17:28.871Z,16.92
2023-01-02T07:22:51.788Z,14.75
2023-01-02T07:28:13.714Z,17.23
2023-01-02T07:33:35.847Z,15.98
2023-01-02T07:38:57.718Z,14.73
2023-01-02T07:44:19.567Z,13.10
2023-01-02T07:49:41.474Z,13.60
2023-01-02T07:55:03.603Z,13.50
2023-01-02T08:00:25.636Z,15.55
2023-01-02T08:05:47.689Z,14.18
2023-01-02T08:11:12.731Z,15.02
2023-01-02T08:16:34.854Z,14.25
2023-01-02T08:21:56.749Z,14.77
2023-01-02T08:27:18.667Z,15.65
2023-01-02T08:32:40.673Z,17.10
2023-01-02T08:38:02.573Z,15.25
2023-01-02T08:43:25.263Z,14.88
2023-01-02T08:48:47.209Z,15.35
2023-01-02T08:54:09.159Z,13.52
2023-01-02T08:59:31.004Z,14.88
2023-01-02T09:04:52.905Z,17.65
2023-01-02T09:10:15.328Z,17.35
2023-01-02T09:15:37.215Z,14.15
2023-01-02T09:20:59.199Z,15.85
2023-01-02T09:26:21.527Z,15.07
2023-01-02T09:31:43.493Z,12.40
2023-01-02T09:37:05.373Z,14.15
2023-01-02T09:42:27.352Z,14.02
2023-01-02T09:47:50.761Z,13.68
2023-01-02T09:53:13.879Z,19.98
2023-01-02T09:58:35.773Z,14.95
2023-01-02T10:04:17.985Z,16.25
2023-01-02T10:10:18.056Z,15.20
2023-01-02T10:15:46.117Z,15.98
2023-01-02T10:21:23.336Z,15.93
2023-01-02T10:26:53.742Z,14.75
2023-01-02T10:32:21.535Z,16.75
2023-01-02T10:37:43.518Z,16.38
2023-01-02T10:43:05.448Z,14.27
2023-01-02T10:48:32.482Z,17.58
2023-01-02T10:54:05.966Z,15.75
2023-01-02T10:59:28.822Z,18.02
2023-01-02T11:04:51.775Z,18.25
2023-01-02T11:10:37.098Z,16.95
2023-01-02T11:16:02.118Z,15.23
2023-01-02T11:21:34.094Z,16.05
2023-01-02T11:26:56.244Z,15.50
2023-01-02T11:32:24.515Z,23.13
2023-01-02T11:37:52.630Z,16.95
2023-01-02T11:43:14.736Z,16.63
2023-01-02T11:48:37.036Z,22.20
2023-01-02T11:54:02.705Z,15.63
2023-01-02T11:59:32.043Z,14.15
2023-01-02T12:04:55.069Z,15.10
2023-01-02T12:10:28.023Z,16.40
2023-01-02T12:15:52.992Z,17.35
2023-01-02T12:21:35.062Z,15.52
2023-01-02T12:27:07.414Z,16.42
2023-01-02T12:32:41.463Z,16.02
2023-01-02T12:38:06.913Z,13.07
2023-01-02T12:43:34.771Z,17.67
2023-01-02T12:49:15.354Z,16.40
2023-01-02T12:55:18.933Z,15.65
2023-01-02T13:01:33.261Z,19.48
2023-01-02T13:07:03.518Z,15.32
2023-01-02T13:12:27.783Z,15.07
2023-01-02T13:17:49.588Z,14.65
2023-01-02T13:23:34.400Z,14.18
2023-01-02T13:28:59.086Z,21.85
2023-01-02T13:34:30.079Z,19.23
2023-01-02T13:39:57.938Z,16.00
2023-01-02T13:45:24.624Z,15.02
2023-01-02T13:50:46.793Z,16.77
2023-01-02T13:56:10.134Z,18.38
2023-01-02T14:02:02.421Z,16.70
2023-01-02T14:07:27.519Z,15.15
2023-01-02T14:13:02.558Z,19.15
2023-01-02T14:18:30.758Z,18.40
2023-01-02T14:24:16.985Z,19.00
2023-01-02T14:29:52.488Z,16.75
2023-01-02T14:35:15.227Z,12.50
2023-01-02T14:40:44.971Z,18.08
2023-01-02T14:46:23.147Z,22.33
2023-01-02T14:52:00.663Z,16.95
2023-01-02T14:57:31.236Z,14.85
2023-01-02T15:03:28.237Z,16.25
2023-01-02T15:08:53.111Z,19.67
2023-01-02T15:14:22.085Z,19.98
2023-01-02T15:19:47.311Z,20.73
2023-01-02T15:25:13.033Z,18.95
2023-01-02T15:30:37.163Z,21.63
2023-01-02T15:36:03.562Z,20.75
2023-01-02T15:41:25.533Z,20.25
2023-01-02T15:46:48.118Z,18.80
2023-01-02T15:52:25.116Z,22.13
2023-01-02T15:57:52.862Z,20.90
2023-01-02T16:04:02.419Z,19.67
2023-01-02T16:09:27.133Z,20.33
2023-01-02T16:14:52.969Z,25.35
2023-01-02T16:20:14.758Z,19.47
2023-01-02T16:25:44.575Z,22.70
2023-01-02T16:31:18.335Z,21.13
2023-01-02T16:36:40.422Z,21.80
2023-01-02T16:42:02.311Z,29.98
2023-01-02T16:47:29.732Z,26.45
2023-01-02T16:52:54.404Z,19.27
2023-01-02T16:58:16.279Z,20.27
2023-01-02T17:03:38.212Z,20.73
2023-01-02T17:09:00.112Z,22.70
2023-01-02T17:14:21.954Z,20.13
2023-01-02T17:19:43.772Z,23.58
2023-01-02T17:25:08.272Z,23.25
2023-01-02T17:30:30.082Z,21.30
2023-01-02T17:35:51.973Z,22.10
2023-01-02T17:41:13.948Z,23.17
2023-01-02T17:52:18.126Z,19.80
2023-01-02T17:57:41.304Z,19.65
2023-01-02T18:03:03.207Z,19.98
2023-01-02T18:08:25.148Z,21.50
2023-01-02T18:13:55.976Z,21.50
2023-01-02T18:19:23.436Z,17.52
2023-01-02T18:24:47.123Z,21.05
2023-01-02T18:30:22.540Z,18.27
2023-01-02T18:36:00.192Z,19.45
2023-01-02T18:41:23.516Z,20.40
2023-01-02T18:47:04.068Z,21.67
2023-01-02T18:52:29.904Z,20.90
2023-01-02T18:57:59.646Z,21.60
2023-01-02T19:03:26.520Z,16.55
2023-01-02T19:08:48.527Z,16.02
2023-01-02T19:14:22.018Z,19.60
2023-01-02T19:19:44.536Z,16.98
2023-01-02T19:25:18.788Z,18.42
2023-01-02T19:30:41.408Z,17.77
2023-01-02T19:36:05.061Z,19.08
2023-01-02T19:41:26.894Z,19.73
2023-01-02T19:46:48.735Z,19.35
2023-01-02T19:52:11.546Z,21.20
2023-01-02T19:57:34.439Z,23.10
2023-01-02T20:02:56.808Z,23.65
2023-01-02T20:08:18.812Z,22.80
2023-01-02T20:13:40.687Z,19.48
2023-01-02T20:19:02.581Z,23.42
2023-01-02T20:24:24.854Z,21.05
2023-01-02T20:29:50.389Z,20.40
2023-01-02T20:35:12.801Z,21.10
2023-01-02T20:40:34.881Z,21.20
2023-01-02T20:45:57.134Z,19.80
2023-01-02T20:51:19.056Z,18.40
2023-01-02T20:56:40.902Z,23.75
2023-01-02T21:02:02.858Z,22.90
2023-01-02T21:07:24.821Z,20.25
2023-01-02T21:12:46.721Z,22.33
2023-01-02T21:18:09.815Z,26.13
2023-01-02T21:23:33.800Z,19.25
2023-01-02T21:28:55.630Z,13.68
2023-01-02T21:34:17.745Z,15.65
2023-01-02T21:39:39.669Z,13.85
2023-01-02T21:45:02.082Z,13.93
2023-01-02T21:50:25.136Z,13.07
2023-01-02T21:55:46.963Z,21.17
2023-01-02T22:01:08.896Z,14.88
2023-01-02T22:06:30.839Z,12.52
2023-01-02T22:11:53.549Z,14.75
2023-01-02T22:17:15.419Z,12.88
2023-01-02T22:22:37.357Z,13.13
2023-01-02T22:27:59.332Z,12.38
2023-01-02T22:33:21.582Z,13.68
2023-01-02T22:39:02.266Z,13.43
2023-01-02T22:44:25.416Z,12.45
2023-01-02T22:49:48.958Z,13.65
2023-01-02T22:55:16.700Z,14.30
2023-01-02T23:00:38.981Z,16.13
2023-01-02T23:06:00.867Z,13.15
2023-01-02T23:11:23.167Z,11.52
2023-01-02T23:16:45.111Z,13.60
2023-01-02T23:22:06.971Z,12.27
2023-01-02T23:27:28.795Z,12.80
2023-01-02T23:32:50.643Z,12.68
2023-01-02T23:38:12.504Z,11.25
2023-01-02T23:43:34.374Z,15.48
2023-01-02T23:48:56.396Z,12.40
2023-01-02T23:54:18.704Z,14.38
2023-01-02T23:59:40.554Z,13.45
